createdAt,value
2023-01-03T00:04:49.830Z,69.31
2023-01-03T00:09:51.491Z,68.42
2023-01-03T00:14:52.939Z,68.89
2023-01-03T00:19:54.824Z,68.79
2023-01-03T00:24:56.270Z,69.40
2023-01-03T00:29:57.708Z,69.54
2023-01-03T00:35:04.759Z,71.68
2023-01-03T00:40:07.288Z,72.41
2023-01-03T00:45:10.676Z,73.43
2023-01-03T00:50:12.249Z,74.26
2023-01-03T00:55:13.757Z,75.87
2023-01-03T01:00:15.518Z,76.08
2023-01-03T01:05:17.049Z,77.48
2023-01-03T01:10:20.168Z,76.42
2023-01-03T01:15:21.932Z,77.36
2023-01-03T01:20:23.362Z,77.47
2023-01-03T01:25:24.843Z,79.58
2023-01-03T01:30:26.253Z,78.34
2023-01-03T01:35:27.715Z,81.36
2023-01-03T01:40:31.584Z,80.17
2023-01-03T01:45:35.247Z,80.93
2023-01-03T01:50:54.354Z,81.59
2023-01-03T01:56:22.060Z,82.00
2023-01-03T02:01:24.964Z,82.19
2023-01-03T02:06:27.836Z,81.95
2023-01-03T02:11:48.153Z,82.53
2023-01-03T02:17:10.471Z,84.45
2023-01-03T02:22:49.230Z,83.44
2023-01-03T02:28:08.141Z,82.81
2023-01-03T02:33:27.917Z,82.89
2023-01-03T02:38:50.084Z,83.10
2023-01-03T02:44:17.930Z,83.06
2023-01-03T02:49:28.080Z,83.90
2023-01-03T02:54:40.532Z,83.17
2023-01-03T02:59:53.259Z,83.40
2023-01-03T03:04:57.587Z,84.85
2023-01-03T03:10:17.672Z,82.66
2023-01-03T03:15:23.698Z,82.76
2023-01-03T03:20:43.480Z,82.07
2023-01-03T03:25:52.524Z,81.58
2023-01-03T03:30:58.844Z,81.78
2023-01-03T03:36:08.544Z,81.73
2023-01-03T03:41:57.081Z,80.85
2023-01-03T03:47:08.873Z,80.56
2023-01-03T03:52:15.930Z,81.51
2023-01-03T03:57:24.500Z,80.99
2023-01-03T04:02:29.547Z,80.22
2023-01-03T04:07:31.063Z,80.70
2023-01-03T04:12:32.503Z,80.65
2023-01-03T04:17:34.091Z,81.10
2023-01-03T04:22:35.589Z,81.32
2023-01-03T04:27:37.064Z,81.90
2023-01-03T04:32:38.979Z,81.16
2023-01-03T04:37:40.395Z,81.39
2023-01-03T04:43:00.503Z,81.38
2023-01-03T04:48:02.187Z,81.59
2023-01-03T04:53:03.645Z,81.47
2023-01-03T04:58:05.077Z,81.50
2023-01-03T05:03:06.535Z,81.55
2023-01-03T05:08:11.571Z,81.86
2023-01-03T05:13:12.991Z,82.01
2023-01-03T05:18:14.546Z,82.40
2023-01-03T05:23:36.786Z,81.92
2023-01-03T05:28:39.016Z,81.68
2023-01-03T05:33:41.160Z,81.93
2023-01-03T05:38:42.613Z,81.76
2023-01-03T05:43:44.498Z,81.31
2023-01-03T05:48:45.919Z,81.58
2023-01-03T05:53:47.464Z,81.08
2023-01-03T05:58:49.225Z,81.47
2023-01-03T06:03:50.691Z,81.31
2023-01-03T06:08:52.539Z,81.16
2023-01-03T06:13:54.040Z,80.97
2023-01-03T06:18:55.572Z,80.83
2023-01-03T06:23:57.059Z,80.48
2023-01-03T06:28:58.783Z,80.83
2023-01-03T06:34:00.241Z,80.85
2023-01-03T06:39:02.114Z,81.12
2023-01-03T06:44:03.713Z,81.23
2023-01-03T06:49:23.602Z,80.95
2023-01-03T06:54:27.039Z,81.32
2023-01-03T06:59:28.769Z,80.95
2023-01-03T07:04:30.286Z,80.76
2023-01-03T07:09:31.748Z,80.39
2023-01-03T07:14:33.165Z,80.54
2023-01-03T07:19:34.696Z,80.60
2023-01-03T07:24:36.108Z,80.01
2023-01-03T07:29:37.535Z,80.12
2023-01-03T07:34:38.958Z,80.26
2023-01-03T07:39:40.405Z,80.12
2023-01-03T07:44:41.821Z,80.23
2023-01-03T07:49:43.251Z,80.32
2023-01-03T07:54:44.704Z,79.97
2023-01-03T07:59:46.177Z,79.40
2023-01-03T08:04:47.632Z,79.27
2023-01-03T08:10:07.997Z,79.48
2023-01-03T08:15:09.701Z,78.50
2023-01-03T08:20:11.238Z,78.47
2023-01-03T08:25:12.654Z,77.86
2023-01-03T08:30:14.125Z,78.05
2023-01-03T08:35:16.895Z,78.41
2023-01-03T08:40:18.983Z,78.76
2023-01-03T08:45:20.620Z,77.59
2023-01-03T08:50:22.103Z,76.81
2023-01-03T08:55:23.596Z,76.81
2023-01-03T09:00:25.229Z,77.84
2023-01-03T09:05:28.182Z,76.76
2023-01-03T09:10:29.627Z,77.25
2023-01-03T09:15:31.100Z,76.42
2023-01-03T09:20:32.522Z,76.60
2023-01-03T09:25:37.360Z,77.15
2023-01-03T09:30:39.494Z,78.16
2023-01-03T09:35:41.003Z,76.50
2023-01-03T09:40:45.219Z,76.73
2023-01-03T09:45:52.160Z,76.77
2023-01-03T09:56:33.241Z,76.32
2023-01-03T10:02:02.977Z,75.28
2023-01-03T10:07:16.441Z,75.69
2023-01-03T10:12:47.146Z,75.25
2023-01-03T10:18:24.970Z,75.71
2023-01-03T10:23:26.530Z,77.45
2023-01-03T10:28:41.150Z,77.78
2023-01-03T10:33:47.998Z,76.88
2023-01-03T10:39:03.382Z,77.22
2023-01-03T10:44:05.258Z,76.47
2023-01-03T10:49:33.497Z,75.82
2023-01-03T10:54:41.006Z,75.49
2023-01-03T10:59:48.974Z,75.78
2023-01-03T11:05:12.333Z,74.55
2023-01-03T11:10:18.636Z,75.03
2023-01-03T11:15:38.727Z,74.28
2023-01-03T11:20:49.827Z,73.92
2023-01-03T11:26:06.803Z,74.60
2023-01-03T11:31:33.715Z,73.56
2023-01-03T11:36:48.734Z,72.50
2023-01-03T11:42:12.092Z,73.34
2023-01-03T11:47:34.986Z,75.31
2023-01-03T11:52:43.705Z,75.10
2023-01-03T11:58:02.266Z,73.63
2023-01-03T12:03:28.449Z,72.81
2023-01-03T12:08:43.016Z,69.71
2023-01-03T12:13:51.345Z,67.79
2023-01-03T12:19:11.923Z,67.43
2023-01-03T12:24:49.997Z,68.77
2023-01-03T12:29:57.399Z,67.53
2023-01-03T12:35:14.844Z,68.31
2023-01-03T12:40:26.231Z,66.67
2023-01-03T12:45:56.268Z,67.10
2023-01-03T12:50:57.830Z,64.90
2023-01-03T12:56:29.014Z,66.88
2023-01-03T13:01:40.916Z,67.11
2023-01-03T13:06:49.785Z,65.95
2023-01-03T13:11:54.433Z,65.98
2023-01-03T13:17:06.956Z,66.79
2023-01-03T13:22:45.489Z,67.13
2023-01-03T13:27:51.564Z,67.43
2023-01-03T13:33:00.220Z,68.60
2023-01-03T13:38:26.700Z,68.54
2023-01-03T13:43:37.734Z,67.84
2023-01-03T13:48:51.667Z,68.33
2023-01-03T13:54:21.972Z,68.30
2023-01-03T13:59:30.995Z,68.41
2023-01-03T14:04:56.866Z,69.18
2023-01-03T14:10:05.553Z,68.74
2023-01-03T14:15:25.845Z,69.63
2023-01-03T14:20:35.368Z,69.54
2023-01-03T14:25:42.464Z,69.36
2023-01-03T14:30:44.941Z,69.39
2023-01-03T14:35:46.497Z,69.90
2023-01-03T14:40:48.441Z,70.53
2023-01-03T14:45:54.701Z,70.56
2023-01-03T14:50:56.316Z,70.44
2023-01-03T14:55:58.637Z,70.83
2023-01-03T15:01:03.755Z,71.02
2023-01-03T15:06:21.493Z,71.43
2023-01-03T15:11:56.664Z,71.61
2023-01-03T15:17:14.791Z,72.08
2023-01-03T15:22:21.544Z,72.35
2023-01-03T15:27:41.212Z,72.98
2023-01-03T15:32:53.700Z,73.52
2023-01-03T15:37:56.114Z,73.15
2023-01-03T15:43:21.438Z,72.95
2023-01-03T15:48:22.958Z,72.73
2023-01-03T15:53:31.397Z,72.41
2023-01-03T15:58:35.476Z,72.57
2023-01-03T16:03:37.112Z,73.15
2023-01-03T16:08:40.337Z,73.42
2023-01-03T16:13:50.431Z,73.96
2023-01-03T16:18:52.685Z,73.87
2023-01-03T16:23:54.330Z,74.14
2023-01-03T16:28:56.470Z,74.26
2023-01-03T16:33:58.154Z,74.47
2023-01-03T16:39:00.322Z,75.03
2023-01-03T16:44:01.820Z,75.48
2023-01-03T16:49:03.434Z,75.62
2023-01-03T16:54:07.461Z,75.87
2023-01-03T16:59:15.074Z,76.17
2023-01-03T17:04:17.118Z,76.31
2023-01-03T17:09:22.721Z,76.58
2023-01-03T17:14:24.378Z,76.69
2023-01-03T17:24:48.676Z,77.08
2023-01-03T17:29:53.110Z,77.28
2023-01-03T17:34:54.577Z,77.64
2023-01-03T17:39:59.793Z,77.38
2023-01-03T17:45:19.803Z,77.61
2023-01-03T17:50:21.234Z,77.69
2023-01-03T17:55:26.473Z,77.57
2023-01-03T18:00:29.223Z,77.57
2023-01-03T18:05:30.993Z,77.60
2023-01-03T18:10:43.856Z,77.95
2023-01-03T18:15:47.509Z,78.38
2023-01-03T18:20:49.421Z,78.72
2023-01-03T18:25:51.667Z,78.77
2023-01-03T18:30:54.829Z,78.67
2023-01-03T18:35:56.424Z,79.29
2023-01-03T18:41:04.408Z,78.94
2023-01-03T18:46:14.493Z,78.86
2023-01-03T18:51:18.602Z,79.15
2023-01-03T18:56:28.703Z,79.24
2023-01-03T19:01:30.795Z,79.27
2023-01-03T19:06:33.792Z,79.82
2023-01-03T19:11:37.605Z,79.88
2023-01-03T19:16:39.243Z,79.59
2023-01-03T19:21:44.418Z,79.64
2023-01-03T19:26:50.590Z,79.37
2023-01-03T19:31:55.163Z,80.16
2023-01-03T19:36:57.930Z,79.93
2023-01-03T19:42:18.750Z,80.25
2023-01-03T19:47:20.771Z,79.66
2023-01-03T19:52:22.282Z,79.84
2023-01-03T19:57:33.966Z,79.98
2023-01-03T20:02:39.837Z,79.86
2023-01-03T20:07:41.685Z,79.80
2023-01-03T20:12:43.540Z,79.67
2023-01-03T20:17:45.032Z,79.56
2023-01-03T20:23:05.853Z,79.40
2023-01-03T20:28:16.968Z,79.58
2023-01-03T20:33:18.775Z,79.57
2023-01-03T20:38:27.364Z,79.69
2023-01-03T20:43:28.992Z,79.72
2023-01-03T20:48:30.508Z,79.72
2023-01-03T20:53:31.951Z,79.65
2023-01-03T20:58:33.358Z,79.15
2023-01-03T21:03:36.485Z,79.31
2023-01-03T21:08:56.325Z,79.42
2023-01-03T21:13:59.975Z,79.48
2023-01-03T21:19:22.889Z,79.17
2023-01-03T21:24:25.226Z,78.77
2023-01-03T21:29:27.775Z,78.83
2023-01-03T21:34:30.601Z,78.72
2023-01-03T21:39:32.020Z,78.58
2023-01-03T21:44:33.439Z,78.27
2023-01-03T21:49:34.850Z,78.35
2023-01-03T21:54:36.270Z,78.62
2023-01-03T21:59:37.917Z,78.40
2023-01-03T22:04:39.334Z,78.56
2023-01-03T22:09:59.366Z,78.29
2023-01-03T22:15:00.857Z,78.47
2023-01-03T22:20:03.267Z,78.36
2023-01-03T22:25:05.343Z,77.91
2023-01-03T22:30:09.365Z,78.36
2023-01-03T22:35:13.106Z,78.20
2023-01-03T22:40:17.184Z,78.17
2023-01-03T22:45:18.739Z,77.65
2023-01-03T22:50:20.289Z,78.09
2023-01-03T22:55:24.364Z,77.93
2023-01-03T23:00:28.145Z,77.72
2023-01-03T23:05:29.554Z,77.89
2023-01-03T23:10:30.994Z,77.72
2023-01-03T23:15:32.556Z,77.50
2023-01-03T23:20:36.148Z,78.12
2023-01-03T23:25:37.637Z,77.86
2023-01-03T23:30:39.140Z,77.75
2023-01-03T23:35:40.581Z,77.65
2023-01-03T23:40:43.359Z,77.96
2023-01-03T23:45:44.797Z,78.18
2023-01-03T23:50:46.351Z,78.87
2023-01-03T23:55:47.810Z,79.03
